Time;durP1;ratioP1;P1;durP2;ratioP2;P2;SDS_P1;SDS_P2;PMS_P1;PMS_P2;Temp;Humidity;BMP_temperature;BMP_pressure;BME280_temperature;BME280_humidity;BME280_pressure;Samples;Min_cycle;Max_cycle;Signal;HPM_P1;HPM_P2
2022/10/15 00:00:34;;;;;;;12.45;6.93;;;;;;;;;;2316815;58;21601;-77
2022/10/15 00:03:01;;;;;;;12.05;6.75;;;;;;;;;;2317365;58;21191;-77
2022/10/15 00:05:28;;;;;;;11.43;7.32;;;;;;;;;;2558105;53;21595;-78
2022/10/15 00:07:55;;;;;;;10.10;6.75;;;;;;;;;;2317593;58;21767;-77
2022/10/15 00:10:22;;;;;;;10.57;6.45;;;;;;;;;;2317188;58;21119;-77
2022/10/15 00:12:50;;;;;;;9.75;7.10;;;;;;;;;;2316893;58;21135;-76
2022/10/15 00:15:17;;;;;;;11.30;7.32;;;;;;;;;;2317545;58;21067;-77
2022/10/15 00:17:44;;;;;;;11.57;7.50;;;;;;;;;;2316574;58;21052;-76
2022/10/15 00:20:11;;;;;;;12.07;7.95;;;;;;;;;;2317931;58;21052;-77
2022/10/15 00:22:39;;;;;;;12.50;7.65;;;;;;;;;;2316715;58;21625;-77
2022/10/15 00:25:07;;;;;;;12.20;7.50;;;;;;;;;;2317559;58;21554;-77
2022/10/15 00:27:34;;;;;;;11.45;8.23;;;;;;;;;;2558566;54;21072;-77
2022/10/15 00:30:02;;;;;;;13.32;8.65;;;;;;;;;;2317338;58;21052;-77
2022/10/15 00:32:29;;;;;;;12.37;7.87;;;;;;;;;;2317560;58;21184;-77
2022/10/15 00:34:56;;;;;;;11.02;7.93;;;;;;;;;;2316809;58;21569;-77
2022/10/15 00:37:24;;;;;;;12.90;8.85;;;;;;;;;;2317103;58;21068;-77
2022/10/15 00:40:01;;;;;;;11.48;8.85;;;;;;;;;;2316910;58;21056;-78
2022/10/15 00:42:28;;;;;;;9.95;8.32;;;;;;;;;;2317302;58;22047;-77
2022/10/15 00:44:57;;;;;;;10.52;7.90;;;;;;;;;;2317037;58;21120;-77
2022/10/15 00:47:26;;;;;;;15.55;9.88;;;;;;;;;;2317708;58;21080;-77
2022/10/15 00:49:57;;;;;;;11.98;8.85;;;;;;;;;;2317931;58;21127;-77
2022/10/15 00:52:26;;;;;;;12.68;8.98;;;;;;;;;;2316189;58;22127;-77
2022/10/15 00:54:56;;;;;;;17.70;10.27;;;;;;;;;;2318010;58;21064;-77
2022/10/15 00:57:24;;;;;;;14.27;10.07;;;;;;;;;;2317966;58;21044;-77
2022/10/15 00:59:54;;;;;;;17.48;9.02;;;;;;;;;;2318192;58;21041;-77
2022/10/15 01:02:21;;;;;;;17.37;10.30;;;;;;;;;;2317140;58;21092;-77
2022/10/15 01:04:48;;;;;;;15.52;11.10;;;;;;;;;;2317665;58;21139;-77
2022/10/15 01:07:15;;;;;;;18.48;10.13;;;;;;;;;;2558235;53;21048;-77
2022/10/15 01:09:42;;;;;;;20.00;10.18;;;;;;;;;;2317068;58;21052;-77
2022/10/15 01:12:13;;;;;;;13.07;9.75;;;;;;;;;;2316840;58;21060;-78
2022/10/15 01:14:46;;;;;;;13.13;9.30;;;;;;;;;;2317886;58;21344;-77
2022/10/15 01:17:17;;;;;;;16.05;10.05;;;;;;;;;;2318451;58;21064;-77
2022/10/15 01:19:54;;;;;;;17.25;11.32;;;;;;;;;;2317139;58;21084;-77
2022/10/15 01:22:24;;;;;;;18.70;11.98;;;;;;;;;;2317099;58;21125;-77
2022/10/15 01:24:56;;;;;;;15.25;10.75;;;;;;;;;;2317670;58;21131;-77
2022/10/15 01:27:32;;;;;;;18.43;11.10;;;;;;;;;;2316775;58;21051;-77
2022/10/15 01:30:05;;;;;;;18.65;11.48;;;;;;;;;;2318051;58;21543;-77
2022/10/15 01:32:35;;;;;;;19.30;11.85;;;;;;;;;;2317837;58;21550;-77
2022/10/15 01:35:05;;;;;;;16.90;12.48;;;;;;;;;;2317561;58;21539;-77
2022/10/15 01:37:36;;;;;;;16.90;11.65;;;;;;;;;;2317449;58;21063;-78
2022/10/15 01:40:05;;;;;;;22.23;13.35;;;;;;;;;;2559091;53;21052;-77
2022/10/15 01:42:34;;;;;;;19.65;14.00;;;;;;;;;;2317427;58;21634;-77
2022/10/15 01:45:06;;;;;;;18.92;13.02;;;;;;;;;;2316838;58;21123;-77
2022/10/15 01:47:35;;;;;;;18.90;13.52;;;;;;;;;;2558208;53;21582;-77
2022/10/15 01:50:04;;;;;;;17.60;13.23;;;;;;;;;;2317429;58;21586;-77
2022/10/15 01:52:33;;;;;;;27.13;16.65;;;;;;;;;;2316898;58;21140;-77
2022/10/15 01:55:01;;;;;;;22.85;15.48;;;;;;;;;;2317980;58;21048;-77
2022/10/15 01:57:28;;;;;;;22.65;15.02;;;;;;;;;;2317459;58;21080;-77
2022/10/15 01:59:55;;;;;;;22.67;15.82;;;;;;;;;;2318031;58;21131;-77
2022/10/15 02:02:22;;;;;;;24.15;16.17;;;;;;;;;;2316970;58;21115;-77
2022/10/15 02:04:49;;;;;;;27.20;16.05;;;;;;;;;;2317413;58;21087;-77
2022/10/15 02:07:23;;;;;;;24.58;15.85;;;;;;;;;;2317205;58;21119;-77
2022/10/15 02:09:55;;;;;;;23.85;15.45;;;;;;;;;;2317539;58;21142;-77
2022/10/15 02:12:31;;;;;;;25.95;16.05;;;;;;;;;;2317700;58;21147;-77
2022/10/15 02:15:00;;;;;;;27.05;17.73;;;;;;;;;;2317575;58;21072;-77
2022/10/15 02:17:31;;;;;;;28.15;18.05;;;;;;;;;;2317838;58;21200;-77
2022/10/15 02:20:01;;;;;;;29.58;17.80;;;;;;;;;;2317987;58;21119;-78
2022/10/15 02:22:32;;;;;;;27.10;17.67;;;;;;;;;;2316742;58;21102;-77
2022/10/15 02:25:04;;;;;;;27.37;17.17;;;;;;;;;;2317287;58;21072;-77
2022/10/15 02:27:31;;;;;;;26.50;17.87;;;;;;;;;;2558735;54;21076;-78
2022/10/15 02:30:01;;;;;;;28.87;19.02;;;;;;;;;;2317732;58;21135;-77
2022/10/15 02:32:30;;;;;;;22.73;15.45;;;;;;;;;;2317140;58;21136;-77
2022/10/15 02:34:57;;;;;;;24.55;16.30;;;;;;;;;;2317268;58;21052;-77
2022/10/15 02:37:26;;;;;;;26.30;17.10;;;;;;;;;;2317400;58;21223;-77
2022/10/15 02:39:53;;;;;;;28.10;17.45;;;;;;;;;;2558689;54;21534;-77
2022/10/15 02:42:20;;;;;;;27.15;16.92;;;;;;;;;;2557827;54;21710;-78
2022/10/15 02:44:47;;;;;;;31.02;19.17;;;;;;;;;;2317511;58;21052;-76
2022/10/15 02:47:14;;;;;;;29.95;18.58;;;;;;;;;;2317041;58;21126;-77
2022/10/15 02:49:41;;;;;;;32.17;19.35;;;;;;;;;;2558321;54;21064;-77
2022/10/15 02:52:09;;;;;;;31.02;19.12;;;;;;;;;;2317704;58;21060;-77
2022/10/15 02:54:36;;;;;;;28.85;17.67;;;;;;;;;;2316957;58;21124;-77
2022/10/15 02:57:03;;;;;;;25.27;16.92;;;;;;;;;;2318025;58;21646;-77
2022/10/15 02:59:30;;;;;;;28.55;17.85;;;;;;;;;;2316024;58;21056;-77
2022/10/15 03:01:57;;;;;;;28.85;16.92;;;;;;;;;;2317555;58;21051;-77
2022/10/15 03:04:24;;;;;;;27.62;17.15;;;;;;;;;;2317373;58;21056;-77
2022/10/15 03:06:51;;;;;;;30.88;18.37;;;;;;;;;;2317281;58;21548;-77
2022/10/15 03:09:18;;;;;;;35.22;19.92;;;;;;;;;;2318128;58;21167;-76
2022/10/15 03:11:45;;;;;;;31.42;18.42;;;;;;;;;;2316983;58;21059;-76
2022/10/15 03:14:13;;;;;;;36.38;21.08;;;;;;;;;;2316877;58;21142;-76
2022/10/15 03:16:40;;;;;;;29.85;17.65;;;;;;;;;;2559186;53;21056;-77
2022/10/15 03:19:07;;;;;;;35.45;20.48;;;;;;;;;;2317121;58;21048;-77
2022/10/15 03:21:34;;;;;;;35.47;19.70;;;;;;;;;;2317147;58;21059;-77
2022/10/15 03:24:01;;;;;;;30.50;18.70;;;;;;;;;;2317594;58;21082;-77
2022/10/15 03:26:28;;;;;;;34.38;19.83;;;;;;;;;;2317160;58;21045;-77
2022/10/15 03:28:55;;;;;;;35.42;19.55;;;;;;;;;;2317549;58;21561;-77
2022/10/15 03:31:22;;;;;;;31.92;18.17;;;;;;;;;;2317158;58;21116;-77
2022/10/15 03:33:49;;;;;;;33.05;19.55;;;;;;;;;;2317790;58;21124;-77
2022/10/15 03:36:16;;;;;;;32.10;18.52;;;;;;;;;;2317239;58;21071;-77
2022/10/15 03:38:43;;;;;;;32.50;19.00;;;;;;;;;;2317812;58;21155;-77
2022/10/15 03:41:10;;;;;;;37.20;21.25;;;;;;;;;;2558205;54;21072;-77
2022/10/15 03:43:37;;;;;;;32.72;19.37;;;;;;;;;;2317794;58;21135;-77
2022/10/15 03:46:05;;;;;;;36.60;19.70;;;;;;;;;;2317430;58;21124;-77
2022/10/15 03:48:32;;;;;;;32.75;19.60;;;;;;;;;;2317301;58;21127;-77
2022/10/15 03:50:59;;;;;;;41.60;21.95;;;;;;;;;;2316688;58;21554;-77
2022/10/15 03:53:26;;;;;;;37.80;20.52;;;;;;;;;;2317216;58;21040;-77
2022/10/15 03:55:53;;;;;;;34.25;20.37;;;;;;;;;;2317568;58;21076;-77
2022/10/15 03:58:20;;;;;;;28.77;18.42;;;;;;;;;;2317286;58;21052;-75
2022/10/15 04:00:47;;;;;;;36.67;21.12;;;;;;;;;;2317417;58;21120;-76
2022/10/15 04:03:14;;;;;;;36.60;20.77;;;;;;;;;;2317362;58;21055;-77
2022/10/15 04:05:41;;;;;;;32.65;18.92;;;;;;;;;;2317111;58;21068;-77
2022/10/15 04:08:08;;;;;;;35.85;20.08;;;;;;;;;;2316490;58;21044;-77
2022/10/15 04:10:35;;;;;;;33.72;20.33;;;;;;;;;;2317477;58;21063;-77
2022/10/15 04:13:02;;;;;;;41.20;22.02;;;;;;;;;;2558049;54;21123;-77
2022/10/15 04:15:30;;;;;;;35.88;21.08;;;;;;;;;;2317028;58;21079;-77
2022/10/15 04:17:57;;;;;;;36.35;20.15;;;;;;;;;;2558211;54;21571;-77
2022/10/15 04:20:24;;;;;;;34.97;19.17;;;;;;;;;;2557019;53;21080;-77
2022/10/15 04:22:51;;;;;;;36.03;20.15;;;;;;;;;;2557575;53;21060;-77
2022/10/15 04:25:18;;;;;;;34.42;19.92;;;;;;;;;;2317556;58;21602;-77
2022/10/15 04:27:45;;;;;;;31.45;19.27;;;;;;;;;;2318128;58;21056;-77
2022/10/15 04:30:13;;;;;;;30.92;19.35;;;;;;;;;;2318051;58;21587;-77
2022/10/15 04:32:40;;;;;;;26.67;17.33;;;;;;;;;;2317594;58;21049;-77
2022/10/15 04:35:08;;;;;;;29.48;18.02;;;;;;;;;;2316995;58;21673;-77
2022/10/15 04:37:35;;;;;;;38.22;19.40;;;;;;;;;;2316552;58;21112;-77
2022/10/15 04:40:03;;;;;;;30.05;17.40;;;;;;;;;;2318054;58;21075;-77
2022/10/15 04:42:31;;;;;;;32.50;17.55;;;;;;;;;;2317637;58;21115;-77
2022/10/15 04:44:58;;;;;;;30.02;16.95;;;;;;;;;;2317562;58;21136;-77
2022/10/15 04:47:25;;;;;;;30.37;17.37;;;;;;;;;;2318107;58;21052;-77
2022/10/15 04:49:52;;;;;;;32.30;17.27;;;;;;;;;;2318140;58;21060;-77
2022/10/15 04:52:19;;;;;;;28.10;16.30;;;;;;;;;;2315625;58;21563;-77
2022/10/15 04:54:46;;;;;;;31.05;17.73;;;;;;;;;;2317694;58;21044;-77
2022/10/15 04:57:13;;;;;;;29.05;16.70;;;;;;;;;;2318109;58;21119;-77
2022/10/15 04:59:40;;;;;;;28.67;16.45;;;;;;;;;;2318202;58;21060;-77
2022/10/15 05:02:08;;;;;;;28.48;16.83;;;;;;;;;;2317700;58;21060;-76
2022/10/15 05:04:35;;;;;;;32.80;17.23;;;;;;;;;;2316714;58;22652;-77
2022/10/15 05:07:02;;;;;;;32.53;17.73;;;;;;;;;;2317153;58;21064;-77
2022/10/15 05:09:29;;;;;;;29.95;16.60;;;;;;;;;;2316951;58;21048;-77
2022/10/15 05:11:56;;;;;;;29.55;17.02;;;;;;;;;;2558449;54;21052;-77
2022/10/15 05:14:23;;;;;;;27.27;15.93;;;;;;;;;;2318358;58;21543;-77
2022/10/15 05:16:50;;;;;;;27.45;15.48;;;;;;;;;;2318575;58;21071;-77
2022/10/15 05:19:17;;;;;;;25.37;15.70;;;;;;;;;;2558502;53;21041;-77
2022/10/15 05:21:44;;;;;;;29.65;15.32;;;;;;;;;;2317890;58;21059;-77
2022/10/15 05:24:11;;;;;;;28.62;16.52;;;;;;;;;;2317762;58;21116;-77
2022/10/15 05:26:38;;;;;;;23.65;14.15;;;;;;;;;;2316105;58;21068;-77
2022/10/15 05:29:05;;;;;;;21.48;14.48;;;;;;;;;;2316917;58;21064;-77
2022/10/15 05:31:33;;;;;;;28.85;16.48;;;;;;;;;;2316874;58;21107;-77
2022/10/15 05:34:06;;;;;;;28.85;16.25;;;;;;;;;;2317265;58;21163;-77
2022/10/15 05:36:33;;;;;;;28.10;16.60;;;;;;;;;;2317278;58;21192;-76
2022/10/15 05:39:01;;;;;;;29.25;16.20;;;;;;;;;;2316321;58;21175;-77
2022/10/15 05:41:29;;;;;;;28.35;16.52;;;;;;;;;;2316583;58;21147;-77
2022/10/15 05:43:57;;;;;;;29.33;16.67;;;;;;;;;;2313982;58;21064;-76
2022/10/15 05:46:24;;;;;;;32.63;17.48;;;;;;;;;;2316522;58;21552;-77
2022/10/15 05:48:52;;;;;;;33.63;17.50;;;;;;;;;;2556672;53;21154;-77
2022/10/15 05:51:19;;;;;;;30.62;16.85;;;;;;;;;;2316099;58;21131;-76
2022/10/15 05:53:46;;;;;;;32.72;17.48;;;;;;;;;;2315584;58;21646;-76
2022/10/15 05:56:14;;;;;;;31.08;17.52;;;;;;;;;;2315906;58;21071;-75
2022/10/15 05:58:41;;;;;;;27.77;15.23;;;;;;;;;;2317339;58;21579;-75
2022/10/15 06:01:09;;;;;;;30.58;18.15;;;;;;;;;;2316691;58;21156;-76
2022/10/15 06:03:37;;;;;;;31.08;17.85;;;;;;;;;;2317538;58;21071;-77
2022/10/15 06:06:04;;;;;;;31.05;18.55;;;;;;;;;;2318215;58;21064;-75
2022/10/15 06:08:31;;;;;;;37.45;19.20;;;;;;;;;;2318108;58;21084;-76
2022/10/15 06:11:02;;;;;;;35.03;18.95;;;;;;;;;;2317258;58;21083;-76
2022/10/15 06:13:29;;;;;;;35.35;18.80;;;;;;;;;;2316918;58;21068;-76
2022/10/15 06:15:56;;;;;;;43.25;20.60;;;;;;;;;;2316200;58;21048;-76
2022/10/15 06:18:23;;;;;;;38.40;21.00;;;;;;;;;;2315841;58;21633;-76
2022/10/15 06:20:51;;;;;;;39.50;18.37;;;;;;;;;;2316239;58;21151;-76
2022/10/15 06:23:18;;;;;;;34.38;18.40;;;;;;;;;;2317917;58;21052;-76
2022/10/15 06:25:45;;;;;;;38.95;18.87;;;;;;;;;;2317635;58;21379;-76
2022/10/15 06:28:12;;;;;;;36.83;18.23;;;;;;;;;;2317077;58;21076;-76
2022/10/15 06:30:39;;;;;;;31.55;16.50;;;;;;;;;;2555315;54;21112;-76
2022/10/15 06:33:06;;;;;;;32.78;17.98;;;;;;;;;;2316714;58;21058;-76
2022/10/15 06:35:34;;;;;;;32.20;17.85;;;;;;;;;;2317398;58;21153;-78
2022/10/15 06:38:01;;;;;;;36.17;19.02;;;;;;;;;;2316047;58;21116;-77
2022/10/15 06:40:30;;;;;;;31.37;17.25;;;;;;;;;;2316261;58;21064;-79
2022/10/15 06:43:03;;;;;;;33.67;18.85;;;;;;;;;;2556339;53;21151;-76
2022/10/15 06:45:30;;;;;;;33.95;17.58;;;;;;;;;;2315656;58;21079;-78
2022/10/15 06:47:57;;;;;;;34.20;18.42;;;;;;;;;;2486054;53;73143;-80
2022/10/15 06:50:24;;;;;;;40.40;20.23;;;;;;;;;;2302178;58;21071;-82
2022/10/15 06:52:51;;;;;;;41.78;19.98;;;;;;;;;;2302036;58;21088;-81
2022/10/15 06:55:18;;;;;;;37.83;18.98;;;;;;;;;;2302516;58;21123;-81
2022/10/15 06:57:45;;;;;;;34.05;19.05;;;;;;;;;;2537469;54;21075;-81
2022/10/15 07:00:14;;;;;;;39.40;20.25;;;;;;;;;;2301727;58;21087;-81
2022/10/15 07:02:40;;;;;;;41.37;20.90;;;;;;;;;;2539174;54;21080;-81
2022/10/15 07:05:08;;;;;;;41.92;20.92;;;;;;;;;;2301609;58;21674;-81
2022/10/15 07:07:35;;;;;;;49.20;22.42;;;;;;;;;;2538904;54;21143;-81
2022/10/15 07:10:02;;;;;;;41.95;21.73;;;;;;;;;;2538938;54;21182;-82
2022/10/15 07:12:29;;;;;;;35.55;18.98;;;;;;;;;;2539454;54;21143;-81
2022/10/15 07:14:56;;;;;;;39.13;20.88;;;;;;;;;;2302649;58;21119;-82
2022/10/15 07:17:23;;;;;;;44.45;20.37;;;;;;;;;;2303161;58;21072;-82
2022/10/15 07:19:50;;;;;;;43.58;21.60;;;;;;;;;;2540192;54;21055;-81
2022/10/15 07:22:17;;;;;;;41.03;20.27;;;;;;;;;;2539384;54;21067;-83
2022/10/15 07:24:44;;;;;;;40.30;21.45;;;;;;;;;;2302233;58;21127;-82
2022/10/15 07:27:11;;;;;;;46.97;24.42;;;;;;;;;;2301860;58;21402;-81
2022/10/15 07:29:38;;;;;;;42.35;20.92;;;;;;;;;;2302530;58;21075;-82
2022/10/15 07:32:05;;;;;;;38.03;19.65;;;;;;;;;;2302125;58;21134;-81
2022/10/15 07:34:32;;;;;;;35.97;19.58;;;;;;;;;;2302021;58;21579;-82
2022/10/15 07:36:59;;;;;;;37.97;19.70;;;;;;;;;;2539651;54;21096;-81
2022/10/15 07:39:26;;;;;;;36.45;18.83;;;;;;;;;;2301967;58;21082;-81
2022/10/15 07:41:53;;;;;;;41.35;20.42;;;;;;;;;;2301529;58;21060;-79
2022/10/15 07:44:20;;;;;;;39.30;19.52;;;;;;;;;;2539267;54;21119;-83
2022/10/15 07:46:47;;;;;;;40.30;20.15;;;;;;;;;;2541486;54;21068;-83
2022/10/15 07:49:15;;;;;;;44.20;22.27;;;;;;;;;;2304712;58;21052;-83
2022/10/15 07:51:42;;;;;;;38.85;20.80;;;;;;;;;;2541566;54;21072;-83
2022/10/15 07:54:09;;;;;;;37.30;19.37;;;;;;;;;;2304806;58;21079;-82
2022/10/15 07:56:36;;;;;;;39.28;21.42;;;;;;;;;;2304671;58;21111;-83
2022/10/15 07:59:03;;;;;;;35.63;19.75;;;;;;;;;;2304833;58;21071;-83
2022/10/15 08:01:30;;;;;;;36.67;20.92;;;;;;;;;;2304022;58;21116;-83
2022/10/15 08:03:57;;;;;;;37.17;20.77;;;;;;;;;;2304173;58;21268;-84
2022/10/15 08:06:24;;;;;;;38.50;20.48;;;;;;;;;;2541623;54;21656;-83
2022/10/15 08:08:51;;;;;;;39.55;20.75;;;;;;;;;;2542439;54;21067;-83
2022/10/15 08:11:18;;;;;;;35.38;20.27;;;;;;;;;;2304311;58;21115;-83
2022/10/15 08:13:45;;;;;;;38.83;20.23;;;;;;;;;;2304452;58;21167;-83
2022/10/15 08:16:14;;;;;;;44.20;21.95;;;;;;;;;;2541830;54;21130;-83
2022/10/15 08:18:41;;;;;;;39.92;22.27;;;;;;;;;;2304046;58;21598;-83
2022/10/15 08:21:08;;;;;;;41.05;21.45;;;;;;;;;;2541801;54;21071;-83
2022/10/15 08:23:35;;;;;;;39.13;21.23;;;;;;;;;;2304159;58;21702;-83
2022/10/15 08:26:03;;;;;;;36.33;20.85;;;;;;;;;;2541592;54;21106;-83
2022/10/15 08:28:31;;;;;;;39.90;22.62;;;;;;;;;;2541646;54;21049;-83
2022/10/15 08:30:58;;;;;;;39.58;21.00;;;;;;;;;;2304334;58;21107;-82
2022/10/15 08:33:25;;;;;;;35.83;19.17;;;;;;;;;;2541984;54;21667;-83
2022/10/15 08:35:52;;;;;;;38.55;20.80;;;;;;;;;;2541327;54;21040;-83
2022/10/15 08:38:19;;;;;;;36.33;19.25;;;;;;;;;;2305069;58;21131;-82
2022/10/15 08:40:48;;;;;;;35.60;20.55;;;;;;;;;;2304957;58;21064;-82
2022/10/15 08:43:18;;;;;;;48.28;22.48;;;;;;;;;;2542129;54;21119;-82
2022/10/15 08:45:47;;;;;;;37.38;20.12;;;;;;;;;;2542165;54;21132;-82
2022/10/15 08:48:18;;;;;;;40.38;20.42;;;;;;;;;;2541511;54;21079;-83
2022/10/15 08:50:48;;;;;;;42.60;21.77;;;;;;;;;;2304623;58;21595;-83
2022/10/15 08:53:19;;;;;;;34.30;18.62;;;;;;;;;;2305284;58;21692;-83
2022/10/15 08:55:48;;;;;;;34.53;18.25;;;;;;;;;;2304935;58;21075;-82
2022/10/15 08:58:17;;;;;;;37.75;19.00;;;;;;;;;;2304962;58;21159;-82
2022/10/15 09:00:48;;;;;;;32.70;18.95;;;;;;;;;;2304916;58;21068;-80
2022/10/15 09:03:22;;;;;;;34.97;19.73;;;;;;;;;;2304468;58;21092;-82
2022/10/15 09:05:51;;;;;;;32.85;17.55;;;;;;;;;;2541731;54;21048;-82
2022/10/15 09:08:22;;;;;;;29.83;16.40;;;;;;;;;;2304608;58;21067;-81
2022/10/15 09:10:52;;;;;;;30.42;15.98;;;;;;;;;;2303923;58;21087;-82
2022/10/15 09:13:23;;;;;;;30.33;16.35;;;;;;;;;;2304942;58;21095;-82
2022/10/15 09:15:51;;;;;;;27.05;15.77;;;;;;;;;;2542875;54;21672;-82
2022/10/15 09:18:22;;;;;;;29.73;16.73;;;;;;;;;;2305638;58;21136;-81
2022/10/15 09:20:49;;;;;;;24.67;14.68;;;;;;;;;;2304761;58;21140;-82
2022/10/15 09:23:18;;;;;;;32.47;17.33;;;;;;;;;;2305303;58;21087;-81
2022/10/15 09:25:47;;;;;;;27.70;15.60;;;;;;;;;;2305375;58;21093;-82
2022/10/15 09:28:16;;;;;;;29.50;16.75;;;;;;;;;;2542192;54;21064;-83
2022/10/15 09:30:48;;;;;;;29.02;16.98;;;;;;;;;;2305366;58;21544;-79
2022/10/15 09:33:17;;;;;;;32.50;18.45;;;;;;;;;;2542465;54;21048;-82
2022/10/15 09:35:47;;;;;;;28.62;15.60;;;;;;;;;;2305764;58;21126;-82
2022/10/15 09:38:24;;;;;;;29.98;14.75;;;;;;;;;;2305339;58;21060;-84
2022/10/15 09:40:59;;;;;;;28.80;16.45;;;;;;;;;;2302001;58;21183;-84
2022/10/15 09:43:30;;;;;;;28.20;15.45;;;;;;;;;;2540930;54;21087;-83
2022/10/15 09:45:57;;;;;;;26.27;15.20;;;;;;;;;;2303932;58;21080;-85
2022/10/15 09:48:26;;;;;;;25.73;15.75;;;;;;;;;;2303731;58;21069;-82
2022/10/15 09:50:56;;;;;;;23.92;14.93;;;;;;;;;;2303758;58;21075;-82
2022/10/15 09:53:26;;;;;;;29.17;15.07;;;;;;;;;;2303648;58;21059;-83
2022/10/15 09:55:56;;;;;;;30.92;14.80;;;;;;;;;;2303734;58;21131;-80
2022/10/15 09:58:26;;;;;;;24.67;13.65;;;;;;;;;;2302666;58;21185;-82
2022/10/15 10:00:55;;;;;;;27.70;15.05;;;;;;;;;;2304192;58;21127;-81
2022/10/15 10:03:23;;;;;;;28.17;14.30;;;;;;;;;;2542041;54;21100;-82
2022/10/15 10:05:50;;;;;;;23.38;14.10;;;;;;;;;;2304275;58;21104;-82
2022/10/15 10:08:20;;;;;;;24.87;13.38;;;;;;;;;;2304861;58;21135;-82
2022/10/15 10:10:54;;;;;;;22.60;12.70;;;;;;;;;;2303442;58;21072;-82
2022/10/15 10:13:24;;;;;;;22.10;12.32;;;;;;;;;;2541824;54;21108;-83
2022/10/15 10:15:52;;;;;;;22.20;12.57;;;;;;;;;;2540606;54;21056;-83
2022/10/15 10:18:20;;;;;;;25.37;12.63;;;;;;;;;;2540432;54;21052;-83
2022/10/15 10:20:53;;;;;;;22.42;11.55;;;;;;;;;;2303540;58;21139;-83
2022/10/15 10:23:23;;;;;;;19.60;11.43;;;;;;;;;;2303677;58;21136;-81
2022/10/15 10:25:51;;;;;;;21.25;11.15;;;;;;;;;;2542476;54;21072;-81
2022/10/15 10:28:20;;;;;;;18.65;10.60;;;;;;;;;;2303957;58;21188;-83
2022/10/15 10:30:52;;;;;;;17.52;10.68;;;;;;;;;;2540535;54;21772;-83
2022/10/15 10:33:22;;;;;;;19.15;10.98;;;;;;;;;;2302831;58;21080;-83
2022/10/15 10:35:50;;;;;;;18.80;11.80;;;;;;;;;;2303725;58;21762;-82
2022/10/15 10:38:21;;;;;;;19.55;11.40;;;;;;;;;;2540836;54;21560;-81
2022/10/15 10:40:51;;;;;;;20.98;10.73;;;;;;;;;;2538756;54;21604;-83
2022/10/15 10:43:21;;;;;;;19.60;10.95;;;;;;;;;;2302327;58;21075;-82
2022/10/15 10:45:55;;;;;;;17.60;9.43;;;;;;;;;;2303415;58;21064;-83
2022/10/15 10:48:23;;;;;;;17.75;10.48;;;;;;;;;;2538650;54;21131;-79
2022/10/15 10:51:01;;;;;;;24.58;10.93;;;;;;;;;;2538650;54;21063;-79
2022/10/15 10:53:28;;;;;;;18.95;10.35;;;;;;;;;;2301967;58;21131;-81
2022/10/15 10:55:56;;;;;;;17.60;9.43;;;;;;;;;;2538598;54;21091;-79
2022/10/15 10:58:23;;;;;;;13.23;8.60;;;;;;;;;;2302248;58;21123;-80
2022/10/15 11:00:51;;;;;;;18.55;9.35;;;;;;;;;;2301556;58;21104;-80
2022/10/15 11:03:25;;;;;;;16.80;9.10;;;;;;;;;;2301345;58;21103;-81
2022/10/15 11:05:55;;;;;;;15.25;8.77;;;;;;;;;;2300842;58;21128;-79
2022/10/15 11:08:26;;;;;;;15.05;8.95;;;;;;;;;;2538791;54;21040;-81
2022/10/15 11:10:57;;;;;;;12.30;7.45;;;;;;;;;;2538232;54;21807;-77
2022/10/15 11:13:28;;;;;;;21.02;8.80;;;;;;;;;;2539384;54;21055;-80
2022/10/15 11:15:57;;;;;;;14.95;8.40;;;;;;;;;;2300382;58;21096;-77
2022/10/15 11:18:31;;;;;;;13.38;8.20;;;;;;;;;;2301353;58;21123;-79
2022/10/15 11:21:02;;;;;;;13.40;7.00;;;;;;;;;;2301356;58;21044;-78
2022/10/15 11:23:36;;;;;;;15.48;7.12;;;;;;;;;;2539475;54;21060;-79
2022/10/15 11:26:09;;;;;;;12.43;8.23;;;;;;;;;;2539880;54;21687;-81
2022/10/15 11:28:47;;;;;;;11.43;6.82;;;;;;;;;;2301814;58;21075;-80
2022/10/15 11:31:18;;;;;;;11.30;6.72;;;;;;;;;;2301380;58;21072;-77
2022/10/15 11:33:51;;;;;;;11.70;6.45;;;;;;;;;;2300063;58;21557;-80
2022/10/15 11:36:23;;;;;;;12.60;7.75;;;;;;;;;;2300892;58;21064;-76
2022/10/15 11:38:57;;;;;;;13.00;6.97;;;;;;;;;;2301550;58;21155;-76
2022/10/15 11:41:32;;;;;;;10.95;6.18;;;;;;;;;;2300930;58;21056;-78
2022/10/15 11:44:09;;;;;;;10.43;5.90;;;;;;;;;;2538154;54;21052;-79
2022/10/15 11:46:40;;;;;;;14.90;6.07;;;;;;;;;;2300849;58;21056;-77
2022/10/15 11:49:18;;;;;;;7.78;5.00;;;;;;;;;;2301048;58;21123;-78
2022/10/15 11:51:52;;;;;;;9.85;5.18;;;;;;;;;;2300649;58;21143;-78
2022/10/15 11:54:27;;;;;;;7.82;5.68;;;;;;;;;;2301260;58;21139;-78
2022/10/15 11:56:56;;;;;;;9.65;5.03;;;;;;;;;;2300894;58;21628;-78
2022/10/15 11:59:30;;;;;;;10.55;4.45;;;;;;;;;;2300081;58;21562;-77
2022/10/15 12:02:00;;;;;;;6.10;3.70;;;;;;;;;;2300321;58;21107;-78
2022/10/15 12:04:30;;;;;;;6.93;3.90;;;;;;;;;;2301194;58;21064;-78
2022/10/15 12:06:58;;;;;;;9.52;3.80;;;;;;;;;;2301216;58;21055;-77
2022/10/15 12:09:28;;;;;;;4.82;3.25;;;;;;;;;;2301250;58;21068;-77
2022/10/15 12:12:00;;;;;;;6.60;3.45;;;;;;;;;;2300763;58;21857;-78
2022/10/15 12:14:30;;;;;;;6.05;2.95;;;;;;;;;;2301521;58;21120;-78
2022/10/15 12:17:04;;;;;;;8.45;3.47;;;;;;;;;;2300219;58;21059;-78
2022/10/15 12:19:37;;;;;;;4.40;2.95;;;;;;;;;;2300605;58;21157;-77
2022/10/15 12:22:10;;;;;;;6.93;2.90;;;;;;;;;;2300376;58;21060;-80
2022/10/15 12:24:52;;;;;;;5.82;3.60;;;;;;;;;;2537943;54;21087;-80
2022/10/15 12:27:21;;;;;;;5.90;3.53;;;;;;;;;;2300771;58;21084;-79
2022/10/15 12:29:50;;;;;;;7.28;3.72;;;;;;;;;;2300758;58;21120;-79
2022/10/15 12:32:22;;;;;;;10.00;4.00;;;;;;;;;;2299967;58;21155;-78
2022/10/15 12:34:54;;;;;;;6.55;4.03;;;;;;;;;;2300994;58;21195;-79
2022/10/15 12:37:22;;;;;;;5.43;3.20;;;;;;;;;;2538819;54;21071;-82
2022/10/15 12:39:54;;;;;;;9.73;3.95;;;;;;;;;;2302746;58;21528;-82
2022/10/15 12:42:22;;;;;;;7.57;3.70;;;;;;;;;;2540219;54;21207;-82
2022/10/15 12:44:50;;;;;;;7.60;4.12;;;;;;;;;;2301584;58;21123;-80
2022/10/15 12:47:45;;;;;;;6.53;3.15;;;;;;;;;;2303011;58;21080;-81
2022/10/15 12:50:17;;;;;;;7.65;3.20;;;;;;;;;;2299861;58;21314;-77
2022/10/15 12:53:03;;;;;;;8.95;3.62;;;;;;;;;;2537743;54;21111;-79
2022/10/15 12:55:31;;;;;;;5.00;2.83;;;;;;;;;;2301698;58;21056;-79
2022/10/15 12:58:00;;;;;;;5.28;3.03;;;;;;;;;;2301541;58;21143;-78
2022/10/15 13:00:28;;;;;;;4.45;2.60;;;;;;;;;;2300853;58;21162;-76
2022/10/15 13:02:59;;;;;;;5.97;3.22;;;;;;;;;;2300119;58;21079;-79
2022/10/15 13:05:27;;;;;;;4.30;2.78;;;;;;;;;;2540408;54;21062;-79
2022/10/15 13:07:55;;;;;;;5.82;2.65;;;;;;;;;;2303708;58;21551;-80
2022/10/15 13:10:25;;;;;;;3.47;2.55;;;;;;;;;;2541064;54;21124;-79
2022/10/15 13:12:55;;;;;;;4.95;2.50;;;;;;;;;;2538901;54;21072;-79
2022/10/15 13:15:24;;;;;;;3.08;2.05;;;;;;;;;;2304322;58;21130;-79
2022/10/15 13:17:53;;;;;;;5.43;3.03;;;;;;;;;;2304077;58;21059;-78
2022/10/15 13:20:31;;;;;;;6.12;2.58;;;;;;;;;;2302859;58;21111;-78
2022/10/15 13:23:08;;;;;;;3.80;2.50;;;;;;;;;;2539839;54;21139;-79
2022/10/15 13:25:35;;;;;;;3.45;2.58;;;;;;;;;;2540371;54;21592;-78
2022/10/15 13:28:02;;;;;;;3.00;2.33;;;;;;;;;;2299835;58;21722;-77
2022/10/15 13:30:29;;;;;;;6.22;2.97;;;;;;;;;;2300768;58;21603;-78
2022/10/15 13:32:56;;;;;;;5.80;3.20;;;;;;;;;;2536711;54;21143;-78
2022/10/15 13:35:27;;;;;;;4.32;2.40;;;;;;;;;;2535623;54;21125;-79
2022/10/15 13:37:54;;;;;;;4.93;2.70;;;;;;;;;;2536142;54;21168;-78
2022/10/15 13:40:22;;;;;;;4.70;2.55;;;;;;;;;;2298777;58;21675;-78
2022/10/15 13:42:59;;;;;;;7.70;2.47;;;;;;;;;;2536075;54;21080;-78
2022/10/15 13:45:26;;;;;;;7.43;2.33;;;;;;;;;;2299283;58;21139;-77
2022/10/15 13:47:54;;;;;;;4.43;2.40;;;;;;;;;;2299628;58;21560;-76
2022/10/15 13:50:22;;;;;;;5.68;3.10;;;;;;;;;;2300327;58;21560;-79
2022/10/15 13:52:51;;;;;;;3.92;2.78;;;;;;;;;;2536917;54;21540;-77
2022/10/15 13:55:20;;;;;;;3.22;2.50;;;;;;;;;;2536982;54;21064;-78
2022/10/15 13:57:48;;;;;;;8.43;3.10;;;;;;;;;;2538290;54;21088;-79
2022/10/15 14:00:23;;;;;;;5.18;3.22;;;;;;;;;;2300624;58;21789;-79
2022/10/15 14:03:07;;;;;;;3.40;2.60;;;;;;;;;;2298606;58;21080;-79
2022/10/15 14:05:34;;;;;;;4.07;2.83;;;;;;;;;;2299811;58;21059;-78
2022/10/15 14:08:01;;;;;;;4.60;2.53;;;;;;;;;;2300454;58;21129;-78
2022/10/15 14:10:28;;;;;;;5.47;3.00;;;;;;;;;;2299320;58;21126;-77
2022/10/15 14:12:55;;;;;;;7.18;3.80;;;;;;;;;;2300416;58;21155;-78
2022/10/15 14:15:44;;;;;;;4.93;2.70;;;;;;;;;;2298837;58;21064;-78
2022/10/15 14:18:13;;;;;;;4.57;2.95;;;;;;;;;;2299939;58;21551;-78
2022/10/15 14:20:43;;;;;;;3.95;3.28;;;;;;;;;;2299874;58;21127;-77
2022/10/15 14:23:15;;;;;;;9.07;3.67;;;;;;;;;;2301374;58;21079;-78
2022/10/15 14:25:42;;;;;;;16.77;3.97;;;;;;;;;;2300826;58;21048;-78
2022/10/15 14:28:17;;;;;;;4.65;3.15;;;;;;;;;;2299783;58;21057;-78
2022/10/15 14:30:44;;;;;;;4.37;3.50;;;;;;;;;;2299280;58;21587;-76
2022/10/15 14:33:29;;;;;;;4.97;3.60;;;;;;;;;;2299322;58;21592;-78